createdAt,value
2017-12-11T00:01:03.507Z,5.70
2017-12-11T00:03:31.741Z,5.80
2017-12-11T00:05:59.986Z,5.80
2017-12-11T00:08:28.226Z,5.80
2017-12-11T00:10:56.470Z,6.00
2017-12-11T00:13:24.718Z,6.00
2017-12-11T00:15:52.970Z,6.10
2017-12-11T00:18:21.979Z,6.00
2017-12-11T00:20:50.235Z,6.00
2017-12-11T00:23:19.245Z,6.00
2017-12-11T00:25:47.503Z,5.90
2017-12-11T00:28:16.514Z,5.90
2017-12-11T00:30:44.753Z,5.90
2017-12-11T00:33:13.011Z,6.00
2017-12-11T00:35:41.252Z,6.00
2017-12-11T00:38:09.497Z,6.20
2017-12-11T00:40:38.513Z,6.10
2017-12-11T00:43:06.766Z,6.10
2017-12-11T00:45:35.769Z,6.20
2017-12-11T00:48:04.025Z,6.10
2017-12-11T00:50:33.034Z,6.10
2017-12-11T00:53:01.294Z,6.10
2017-12-11T00:55:30.297Z,6.10
2017-12-11T00:57:59.323Z,6.10
2017-12-11T01:00:27.561Z,6.00
2017-12-11T01:02:56.585Z,6.10
2017-12-11T01:05:24.823Z,6.10
2017-12-11T01:07:53.838Z,6.00
2017-12-11T01:10:22.076Z,6.00
2017-12-11T01:12:50.334Z,6.00
2017-12-11T01:15:18.586Z,5.90
2017-12-11T01:17:46.838Z,6.00
2017-12-11T01:20:15.843Z,6.00
2017-12-11T01:22:44.098Z,6.00
2017-12-11T01:25:13.101Z,5.90
2017-12-11T01:27:41.359Z,5.90
2017-12-11T01:30:10.373Z,5.80
2017-12-11T01:32:38.615Z,5.80
2017-12-11T01:35:06.869Z,5.80
2017-12-11T01:37:35.122Z,5.80
2017-12-11T01:40:03.384Z,5.70
2017-12-11T01:42:31.630Z,5.80
2017-12-11T01:45:00.633Z,5.80
2017-12-11T01:47:28.878Z,5.80
2017-12-11T01:49:57.120Z,5.70
2017-12-11T01:52:25.362Z,5.70
2017-12-11T01:54:54.379Z,5.70
2017-12-11T01:57:22.623Z,5.70
2017-12-11T01:59:51.640Z,5.70
2017-12-11T02:02:19.886Z,5.60
2017-12-11T02:04:48.906Z,5.60
2017-12-11T02:07:17.145Z,5.50
2017-12-11T02:09:46.167Z,5.60
2017-12-11T02:12:14.409Z,5.50
2017-12-11T02:14:42.678Z,5.50
2017-12-11T02:17:10.930Z,5.50
2017-12-11T02:19:39.938Z,5.40
2017-12-11T02:22:08.190Z,5.40
2017-12-11T02:24:36.426Z,5.40
2017-12-11T02:27:04.682Z,5.40
2017-12-11T02:29:32.925Z,5.40
2017-12-11T02:32:01.191Z,5.40
2017-12-11T02:34:29.445Z,5.40
2017-12-11T02:36:57.690Z,5.40
2017-12-11T02:39:26.698Z,5.40
2017-12-11T02:41:55.726Z,5.40
2017-12-11T02:44:23.978Z,5.30
2017-12-11T02:46:52.222Z,5.30
2017-12-11T02:49:21.237Z,5.20
2017-12-11T02:51:49.499Z,5.20
2017-12-11T02:54:18.504Z,5.20
2017-12-11T02:56:47.525Z,5.20
2017-12-11T02:59:15.757Z,5.10
2017-12-11T03:01:44.780Z,5.10
2017-12-11T03:04:13.017Z,5.10
2017-12-11T03:06:41.277Z,5.10
2017-12-11T03:09:09.533Z,5.00
2017-12-11T03:11:37.771Z,5.10
2017-12-11T03:14:06.018Z,5.10
2017-12-11T03:16:34.398Z,5.10
2017-12-11T03:19:02.646Z,5.10
2017-12-11T03:21:31.661Z,5.10
2017-12-11T03:23:59.910Z,5.00
2017-12-11T03:26:28.158Z,5.10
2017-12-11T03:28:56.416Z,5.10
2017-12-11T03:31:24.659Z,5.10
2017-12-11T03:33:52.915Z,5.10
2017-12-11T03:36:21.166Z,5.10
2017-12-11T03:38:49.422Z,5.10
2017-12-11T03:41:17.672Z,5.00
2017-12-11T03:43:45.910Z,5.00
2017-12-11T03:46:14.160Z,5.00
2017-12-11T03:48:42.397Z,5.00
2017-12-11T03:51:11.417Z,5.00
2017-12-11T03:53:39.665Z,5.00
2017-12-11T03:56:08.685Z,5.00
2017-12-11T03:58:36.924Z,5.00
2017-12-11T04:01:05.173Z,5.10
2017-12-11T04:03:33.417Z,5.00
2017-12-11T04:06:01.674Z,5.10
2017-12-11T04:08:30.686Z,5.00
2017-12-11T04:10:58.944Z,5.00
2017-12-11T04:13:27.954Z,5.00
2017-12-11T04:15:56.217Z,5.00
2017-12-11T04:18:25.213Z,5.00
2017-12-11T04:20:53.479Z,5.00
2017-12-11T04:23:22.476Z,5.00
2017-12-11T04:25:50.730Z,5.00
2017-12-11T04:28:18.970Z,5.00
2017-12-11T04:30:47.223Z,5.00
2017-12-11T04:33:15.460Z,5.00
2017-12-11T04:35:44.483Z,5.00
2017-12-11T04:38:12.722Z,5.00
2017-12-11T04:40:40.975Z,5.00
2017-12-11T04:43:09.229Z,4.90
2017-12-11T04:45:37.462Z,4.90
2017-12-11T04:48:06.476Z,4.90
2017-12-11T04:50:34.731Z,4.80
2017-12-11T04:53:03.742Z,4.80
2017-12-11T04:55:31.989Z,4.70
2017-12-11T04:58:01.005Z,4.80
2017-12-11T05:00:29.246Z,4.80
2017-12-11T05:02:57.503Z,4.80
2017-12-11T05:05:25.750Z,4.90
2017-12-11T05:07:54.002Z,4.80
2017-12-11T05:10:22.246Z,4.80
2017-12-11T05:12:50.488Z,4.80
2017-12-11T05:15:18.734Z,4.80
2017-12-11T05:17:46.978Z,4.80
2017-12-11T05:20:15.230Z,4.80
2017-12-11T05:22:43.476Z,4.80
2017-12-11T05:25:11.714Z,4.80
2017-12-11T05:27:40.727Z,4.80
2017-12-11T05:30:08.983Z,4.80
2017-12-11T05:32:37.999Z,4.70
2017-12-11T05:35:06.250Z,4.70
2017-12-11T05:37:35.260Z,4.70
2017-12-11T05:40:03.513Z,4.60
2017-12-11T05:42:32.528Z,4.60
2017-12-11T05:45:00.781Z,4.60
2017-12-11T05:47:29.029Z,4.60
2017-12-11T05:49:57.278Z,4.60
2017-12-11T05:52:25.522Z,4.60
2017-12-11T05:54:54.541Z,4.70
2017-12-11T05:57:22.782Z,4.70
2017-12-11T05:59:51.808Z,4.70
2017-12-11T06:02:20.049Z,4.70
2017-12-11T06:04:49.066Z,4.70
2017-12-11T06:07:17.322Z,4.70
2017-12-11T06:09:46.325Z,4.80
2017-12-11T06:12:14.582Z,4.70
2017-12-11T06:14:43.601Z,4.80
2017-12-11T06:17:11.855Z,4.80
2017-12-11T06:19:40.865Z,4.80
2017-12-11T06:22:09.121Z,4.70
2017-12-11T06:24:37.373Z,4.80
2017-12-11T06:27:05.621Z,4.80
2017-12-11T06:29:33.870Z,4.80
2017-12-11T06:32:02.118Z,4.80
2017-12-11T06:34:31.137Z,4.80
2017-12-11T06:36:59.373Z,4.80
2017-12-11T06:39:27.622Z,4.90
2017-12-11T06:41:55.865Z,4.90
2017-12-11T06:44:24.122Z,4.90
2017-12-11T06:46:53.131Z,4.90
2017-12-11T06:49:21.382Z,4.90
2017-12-11T06:51:49.618Z,4.90
2017-12-11T06:54:17.875Z,4.90
2017-12-11T06:56:46.111Z,4.80
2017-12-11T06:59:15.132Z,4.80
2017-12-11T07:01:43.379Z,4.80
2017-12-11T07:04:12.394Z,4.70
2017-12-11T07:06:40.643Z,4.70
2017-12-11T07:09:08.895Z,4.70
2017-12-11T07:11:37.141Z,4.70
2017-12-11T07:14:05.397Z,4.60
2017-12-11T07:16:33.647Z,4.60
2017-12-11T07:19:02.670Z,4.50
2017-12-11T07:21:30.913Z,4.50
2017-12-11T07:23:59.946Z,4.40
2017-12-11T07:26:28.199Z,4.40
2017-12-11T07:28:57.206Z,4.30
2017-12-11T07:31:25.467Z,4.30
2017-12-11T07:33:54.483Z,4.30
2017-12-11T07:36:22.742Z,4.20
2017-12-11T07:38:50.994Z,4.20
2017-12-11T07:41:20.026Z,4.20
2017-12-11T07:43:48.282Z,4.10
2017-12-11T07:46:17.301Z,4.10
2017-12-11T07:48:45.542Z,4.10
2017-12-11T07:51:14.569Z,4.00
2017-12-11T07:53:42.823Z,4.00
2017-12-11T07:56:11.849Z,4.00
2017-12-11T07:58:40.097Z,4.00
2017-12-11T08:01:09.194Z,4.00
2017-12-11T08:03:37.446Z,4.00
2017-12-11T08:06:06.456Z,3.90
2017-12-11T08:08:34.715Z,3.90
2017-12-11T08:11:03.730Z,3.90
2017-12-11T08:13:31.993Z,3.90
2017-12-11T08:16:01.002Z,3.90
2017-12-11T08:18:29.285Z,3.90
2017-12-11T08:20:57.534Z,3.90
2017-12-11T08:23:26.554Z,3.90
2017-12-11T08:25:54.803Z,3.80
2017-12-11T08:28:23.827Z,3.80
2017-12-11T08:30:52.084Z,3.80
2017-12-11T08:33:20.369Z,3.80
2017-12-11T08:35:48.623Z,3.80
2017-12-11T08:38:17.646Z,3.90
2017-12-11T08:40:45.917Z,3.90
2017-12-11T08:43:14.153Z,4.00
2017-12-11T08:45:42.410Z,3.90
2017-12-11T08:48:10.666Z,3.90
2017-12-11T08:50:38.910Z,4.00
2017-12-11T08:53:07.167Z,3.90
2017-12-11T08:55:36.192Z,3.90
2017-12-11T08:58:04.443Z,3.90
2017-12-11T09:00:33.471Z,4.00
2017-12-11T09:03:01.714Z,3.90
2017-12-11T09:05:30.740Z,4.10
2017-12-11T09:07:58.986Z,4.00
2017-12-11T09:10:27.243Z,4.10
2017-12-11T09:12:56.260Z,4.10
2017-12-11T09:15:24.514Z,4.00
2017-12-11T09:17:53.537Z,4.00
2017-12-11T09:20:21.790Z,4.00
2017-12-11T09:22:50.815Z,4.10
2017-12-11T09:25:19.054Z,4.00
2017-12-11T09:27:48.083Z,4.10
2017-12-11T09:30:16.335Z,4.10
2017-12-11T09:32:44.589Z,4.10
2017-12-11T09:35:13.607Z,4.20
2017-12-11T09:37:41.870Z,4.10
2017-12-11T09:40:10.876Z,4.20
2017-12-11T09:42:39.150Z,4.10
2017-12-11T09:45:07.397Z,4.20
2017-12-11T09:47:35.660Z,4.20
2017-12-11T09:50:03.909Z,4.20
2017-12-11T09:52:32.171Z,4.20
2017-12-11T09:55:00.426Z,4.20
2017-12-11T09:57:28.708Z,4.20
2017-12-11T09:59:56.956Z,4.20
2017-12-11T10:02:25.214Z,4.20
2017-12-11T10:04:53.476Z,4.20
2017-12-11T10:07:21.721Z,4.30
2017-12-11T10:09:49.973Z,4.30
2017-12-11T10:12:18.230Z,4.30
2017-12-11T10:14:46.485Z,4.40
2017-12-11T10:17:14.740Z,4.40
2017-12-11T10:19:42.999Z,4.40
2017-12-11T10:22:11.249Z,4.50
2017-12-11T10:24:40.283Z,4.50
2017-12-11T10:27:08.531Z,4.50
2017-12-11T10:29:36.789Z,4.60
2017-12-11T10:32:05.806Z,4.60
2017-12-11T10:34:34.066Z,4.60
2017-12-11T10:37:02.318Z,4.70
2017-12-11T10:39:30.566Z,4.70
2017-12-11T10:41:58.814Z,4.80
2017-12-11T10:44:27.073Z,4.80
2017-12-11T10:46:55.324Z,4.80
2017-12-11T10:49:24.353Z,4.80
2017-12-11T10:51:52.615Z,4.70
2017-12-11T10:54:20.860Z,4.80
2017-12-11T10:56:49.126Z,4.80
2017-12-11T10:59:17.386Z,4.80
2017-12-11T11:01:45.648Z,4.80
2017-12-11T11:04:13.894Z,4.80
2017-12-11T11:06:42.149Z,4.80
2017-12-11T11:09:11.192Z,4.80
2017-12-11T11:11:39.422Z,4.80
2017-12-11T11:14:08.443Z,4.90
2017-12-11T11:16:36.698Z,4.80
2017-12-11T11:19:04.952Z,4.90
2017-12-11T11:21:33.217Z,4.90
2017-12-11T11:24:01.471Z,4.90
2017-12-11T11:26:29.717Z,5.00
2017-12-11T11:28:57.966Z,5.00
2017-12-11T11:31:26.998Z,5.10
2017-12-11T11:33:55.254Z,5.00
2017-12-11T11:36:23.512Z,5.10
2017-12-11T11:38:52.525Z,5.10
2017-12-11T11:41:20.771Z,5.00
2017-12-11T11:43:49.797Z,5.10
2017-12-11T11:46:18.085Z,5.00
2017-12-11T11:48:46.333Z,5.10
2017-12-11T11:51:15.353Z,5.00
2017-12-11T11:53:43.592Z,5.00
2017-12-11T11:56:12.619Z,5.00
2017-12-11T11:58:40.858Z,5.00
2017-12-11T12:01:09.879Z,5.00
2017-12-11T12:03:38.135Z,5.00
2017-12-11T12:06:07.175Z,5.00
2017-12-11T12:08:35.422Z,4.90
2017-12-11T12:11:03.671Z,4.90
2017-12-11T12:13:32.699Z,4.90
2017-12-11T12:16:00.943Z,4.90
2017-12-11T12:18:29.965Z,4.90
2017-12-11T12:20:58.216Z,4.80
2017-12-11T12:23:27.236Z,4.90
2017-12-11T12:25:55.488Z,4.80
2017-12-11T12:28:24.504Z,4.80
2017-12-11T12:30:52.750Z,4.80
2017-12-11T12:33:21.867Z,4.80
2017-12-11T12:35:50.111Z,4.80
2017-12-11T12:38:18.358Z,4.80
2017-12-11T12:40:46.614Z,4.80
2017-12-11T12:43:14.852Z,4.80
2017-12-11T12:45:43.878Z,4.80
2017-12-11T12:48:12.134Z,4.80
2017-12-11T12:50:40.370Z,4.80
2017-12-11T12:53:10.132Z,4.80
2017-12-11T12:55:38.380Z,4.80
2017-12-11T12:58:07.427Z,4.90
2017-12-11T13:00:35.652Z,4.80
2017-12-11T13:03:03.912Z,4.90
2017-12-11T13:05:32.943Z,4.90
2017-12-11T13:08:01.182Z,4.90
2017-12-11T13:10:30.197Z,4.90
2017-12-11T13:12:58.441Z,4.90
2017-12-11T13:15:26.686Z,4.90
2017-12-11T13:17:54.948Z,4.90
2017-12-11T13:20:23.199Z,4.90
2017-12-11T13:22:51.450Z,4.90
2017-12-11T13:25:20.463Z,4.90
2017-12-11T13:27:48.709Z,4.80
2017-12-11T13:30:16.954Z,4.90
2017-12-11T13:32:45.222Z,4.90
2017-12-11T13:35:13.471Z,4.90
2017-12-11T13:37:41.717Z,4.90
2017-12-11T13:40:09.974Z,4.90
2017-12-11T13:42:38.214Z,4.90
2017-12-11T13:45:06.473Z,4.90
2017-12-11T13:47:34.721Z,4.90
2017-12-11T13:50:03.754Z,4.90
2017-12-11T13:52:31.997Z,4.90
2017-12-11T13:55:01.024Z,4.90
2017-12-11T13:57:29.271Z,4.90
2017-12-11T13:59:58.294Z,4.80
2017-12-11T14:02:26.535Z,4.80
2017-12-11T14:04:54.789Z,4.80
2017-12-11T14:07:23.036Z,4.90
2017-12-11T14:09:51.295Z,4.90
2017-12-11T14:12:19.544Z,4.90
2017-12-11T14:14:47.801Z,4.80
2017-12-11T14:17:16.822Z,5.00
2017-12-11T14:19:45.070Z,5.00
2017-12-11T14:22:14.084Z,5.00
2017-12-11T14:24:42.326Z,4.90
2017-12-11T14:27:10.582Z,4.90
2017-12-11T14:29:38.835Z,4.90
2017-12-11T14:32:07.094Z,4.90
2017-12-11T14:34:35.342Z,4.90
2017-12-11T14:37:03.595Z,4.90
2017-12-11T14:39:31.842Z,4.90
2017-12-11T14:42:00.094Z,5.00
2017-12-11T14:44:28.342Z,4.90
2017-12-11T14:46:57.362Z,5.10
2017-12-11T14:49:25.613Z,5.00
2017-12-11T14:51:54.703Z,5.00
2017-12-11T14:54:22.947Z,5.00
2017-12-11T14:56:51.189Z,5.10
2017-12-11T14:59:19.441Z,5.10
2017-12-11T15:01:48.467Z,5.10
2017-12-11T15:04:16.726Z,5.10
2017-12-11T15:06:45.025Z,5.10
2017-12-11T15:09:14.011Z,5.20
2017-12-11T15:11:42.266Z,5.10
2017-12-11T15:14:10.530Z,5.10
2017-12-11T15:16:39.549Z,5.10
2017-12-11T15:19:07.803Z,5.10
2017-12-11T15:21:36.831Z,5.10
2017-12-11T15:24:05.083Z,5.10
2017-12-11T15:26:33.347Z,5.10
2017-12-11T15:29:02.419Z,5.10
2017-12-11T15:31:30.625Z,5.00
2017-12-11T15:33:58.883Z,5.10
2017-12-11T15:36:27.904Z,5.00
2017-12-11T15:38:56.148Z,5.00
2017-12-11T15:41:25.175Z,5.10
2017-12-11T15:43:53.425Z,5.00
2017-12-11T15:46:21.694Z,5.10
2017-12-11T15:48:50.724Z,5.10
2017-12-11T15:51:18.987Z,5.10
2017-12-11T15:53:47.230Z,5.10
2017-12-11T15:56:15.481Z,5.20
2017-12-11T15:58:43.730Z,5.20
2017-12-11T16:01:11.984Z,5.20
2017-12-11T16:03:40.234Z,5.30
2017-12-11T16:06:08.482Z,5.40
2017-12-11T16:08:36.730Z,5.40
2017-12-11T16:11:04.972Z,5.50
2017-12-11T16:13:33.996Z,5.60
2017-12-11T16:16:02.239Z,5.60
2017-12-11T16:18:31.253Z,5.60
2017-12-11T16:20:59.509Z,5.50
2017-12-11T16:23:28.538Z,5.50
2017-12-11T16:25:56.782Z,5.50
2017-12-11T16:28:25.814Z,5.50
2017-12-11T16:30:54.053Z,5.50
2017-12-11T16:33:23.080Z,5.50
2017-12-11T16:35:51.331Z,5.40
2017-12-11T16:38:19.585Z,5.40
2017-12-11T16:40:48.602Z,5.30
2017-12-11T16:43:16.851Z,5.30
2017-12-11T16:45:45.861Z,5.20
2017-12-11T16:48:14.878Z,5.20
2017-12-11T16:50:43.140Z,5.20
2017-12-11T16:53:11.387Z,5.20
2017-12-11T16:55:40.414Z,5.10
2017-12-11T16:58:08.672Z,5.00
2017-12-11T17:00:37.693Z,5.10
2017-12-11T17:03:05.961Z,5.00
2017-12-11T17:05:34.206Z,5.10
2017-12-11T17:08:03.243Z,5.10
2017-12-11T17:10:31.490Z,5.10
2017-12-11T17:12:59.747Z,5.10
2017-12-11T17:15:28.758Z,5.20
2017-12-11T17:17:57.020Z,5.20
2017-12-11T17:20:26.035Z,5.20
2017-12-11T17:22:54.303Z,5.20
2017-12-11T17:25:22.546Z,5.20
2017-12-11T17:27:50.794Z,5.20
2017-12-11T17:30:19.054Z,5.30
2017-12-11T17:32:47.307Z,5.30
2017-12-11T17:35:15.562Z,5.30
2017-12-11T17:37:44.586Z,5.30
2017-12-11T17:40:12.842Z,5.30
2017-12-11T17:42:41.090Z,5.30
2017-12-11T17:45:09.346Z,5.40
2017-12-11T17:47:38.357Z,5.40
2017-12-11T17:50:06.614Z,5.40
2017-12-11T17:52:34.866Z,5.40
2017-12-11T17:55:03.118Z,5.40
2017-12-11T17:57:32.123Z,5.40
2017-12-11T18:00:00.386Z,5.30
2017-12-11T18:02:28.638Z,5.40
2017-12-11T18:04:56.882Z,5.40
2017-12-11T18:07:25.142Z,5.30
2017-12-11T18:09:53.385Z,5.30
2017-12-11T18:12:22.394Z,5.30
2017-12-11T18:14:50.638Z,5.30
2017-12-11T18:17:19.654Z,5.40
2017-12-11T18:19:47.910Z,5.30
2017-12-11T18:22:16.919Z,5.40
2017-12-11T18:24:45.186Z,5.30
2017-12-11T18:27:14.203Z,5.30
2017-12-11T18:29:42.444Z,5.30
2017-12-11T18:32:11.458Z,5.30
2017-12-11T18:34:39.709Z,5.30
2017-12-11T18:37:08.720Z,5.20
2017-12-11T18:39:36.972Z,5.30
2017-12-11T18:42:05.222Z,5.30
2017-12-11T18:44:34.267Z,5.30
2017-12-11T18:47:02.518Z,5.30
2017-12-11T18:49:31.530Z,5.40
2017-12-11T18:51:59.790Z,5.30
2017-12-11T18:54:28.805Z,5.50
2017-12-11T18:56:57.049Z,5.50
2017-12-11T18:59:25.292Z,5.50
2017-12-11T19:01:53.552Z,5.60
2017-12-11T19:04:21.802Z,5.70
2017-12-11T19:06:50.058Z,5.70
2017-12-11T19:09:19.074Z,5.80
2017-12-11T19:11:47.325Z,5.80
2017-12-11T19:14:16.340Z,5.80
2017-12-11T19:16:44.591Z,5.80
2017-12-11T19:19:12.833Z,5.80
2017-12-11T19:21:41.086Z,5.80
2017-12-11T19:24:09.332Z,5.90
2017-12-11T19:26:38.359Z,5.90
2017-12-11T19:29:06.603Z,5.90
2017-12-11T19:31:35.610Z,6.00
2017-12-11T19:34:03.859Z,5.90
2017-12-11T19:36:32.881Z,5.90
2017-12-11T19:39:01.130Z,5.90
2017-12-11T19:41:30.144Z,5.90
2017-12-11T19:43:58.398Z,5.90
2017-12-11T19:46:27.410Z,5.80
2017-12-11T19:48:55.652Z,5.80
2017-12-11T19:51:23.899Z,5.80
2017-12-11T19:53:52.154Z,5.90
2017-12-11T19:56:20.403Z,5.80
2017-12-11T19:58:49.424Z,5.80
2017-12-11T20:01:17.665Z,5.80
2017-12-11T20:03:46.694Z,5.90
2017-12-11T20:06:14.943Z,5.90
2017-12-11T20:08:43.962Z,5.90
2017-12-11T20:11:12.263Z,5.80
2017-12-11T20:13:41.231Z,5.90
2017-12-11T20:16:09.478Z,5.90
2017-12-11T20:18:38.489Z,5.90
2017-12-11T20:21:06.737Z,5.80
2017-12-11T20:23:35.794Z,6.00
2017-12-11T20:26:04.025Z,6.00
2017-12-11T20:28:32.276Z,5.90
2017-12-11T20:31:00.522Z,5.90
2017-12-11T20:33:28.758Z,6.00
2017-12-11T20:35:57.006Z,5.90
2017-12-11T20:38:26.066Z,6.00
2017-12-11T20:40:54.301Z,6.00
2017-12-11T20:43:22.552Z,6.00
2017-12-11T20:45:51.563Z,6.00
2017-12-11T20:48:19.812Z,6.00
2017-12-11T20:50:48.837Z,6.10
2017-12-11T20:53:17.078Z,6.10
2017-12-11T20:55:46.103Z,6.00
2017-12-11T20:58:14.639Z,6.00
2017-12-11T21:00:43.386Z,6.20
2017-12-11T21:03:11.630Z,6.10
2017-12-11T21:05:40.650Z,6.10
2017-12-11T21:08:08.895Z,6.10
2017-12-11T21:10:37.997Z,6.10
2017-12-11T21:13:06.198Z,6.10
2017-12-11T21:15:34.444Z,6.20
2017-12-11T21:18:03.472Z,6.10
2017-12-11T21:20:31.714Z,6.10
2017-12-11T21:23:00.736Z,6.30
2017-12-11T21:25:28.983Z,6.20
2017-12-11T21:27:58.004Z,6.20
2017-12-11T21:30:26.251Z,6.20
2017-12-11T21:32:55.257Z,6.30
2017-12-11T21:35:23.567Z,6.30
2017-12-11T21:37:51.860Z,6.20
2017-12-11T21:40:20.128Z,6.30
2017-12-11T21:42:48.415Z,6.30
2017-12-11T21:45:16.699Z,6.20
2017-12-11T21:47:44.991Z,6.30
2017-12-11T21:50:14.054Z,6.40
2017-12-11T21:52:42.361Z,6.40
2017-12-11T21:55:10.685Z,6.40
2017-12-11T21:57:38.966Z,6.40
2017-12-11T22:00:07.250Z,6.40
2017-12-11T22:02:35.591Z,6.40
2017-12-11T22:05:03.955Z,6.40
2017-12-11T22:07:33.087Z,6.50
2017-12-11T22:10:01.416Z,6.50
2017-12-11T22:12:29.714Z,6.40
2017-12-11T22:14:58.774Z,6.50
2017-12-11T22:17:27.329Z,6.50
2017-12-11T22:19:55.822Z,6.50
2017-12-11T22:22:24.202Z,6.50
2017-12-11T22:24:52.592Z,6.50
2017-12-11T22:27:20.857Z,6.60
2017-12-11T22:29:49.106Z,6.60
2017-12-11T22:32:17.375Z,6.60
2017-12-11T22:34:45.617Z,6.60
2017-12-11T22:37:14.636Z,6.60
2017-12-11T22:39:42.887Z,6.50
2017-12-11T22:42:11.898Z,6.50
2017-12-11T22:44:40.150Z,6.50
2017-12-11T22:47:09.155Z,6.60
2017-12-11T22:49:38.172Z,6.70
2017-12-11T22:52:06.430Z,6.70
2017-12-11T22:54:34.668Z,6.60
2017-12-11T22:57:02.926Z,6.60
2017-12-11T22:59:31.920Z,6.60
2017-12-11T23:02:00.250Z,6.60
2017-12-11T23:04:28.452Z,6.60
2017-12-11T23:06:56.695Z,6.60
2017-12-11T23:09:25.717Z,6.60
2017-12-11T23:11:53.962Z,6.60
2017-12-11T23:14:22.978Z,6.60
2017-12-11T23:16:51.234Z,6.60
2017-12-11T23:19:20.247Z,6.60
2017-12-11T23:21:48.481Z,6.60
2017-12-11T23:24:17.502Z,6.50
2017-12-11T23:26:45.804Z,6.50
2017-12-11T23:29:14.775Z,6.60
2017-12-11T23:31:43.014Z,6.60
2017-12-11T23:34:11.265Z,6.60
2017-12-11T23:36:40.275Z,6.60
2017-12-11T23:39:08.525Z,6.60
2017-12-11T23:41:36.780Z,6.60
2017-12-11T23:44:05.030Z,6.60
2017-12-11T23:46:34.032Z,6.60
2017-12-11T23:49:02.286Z,6.60
2017-12-11T23:51:31.289Z,6.70
2017-12-11T23:54:17.994Z,6.70
2017-12-11T23:56:46.999Z,6.80
2017-12-11T23:59:15.257Z,6.80
